Time;durP1;ratioP1;P1;durP2;ratioP2;P2;SDS_P1;SDS_P2;PMS_P1;PMS_P2;Temp;Humidity;BMP_temperature;BMP_pressure;BME280_temperature;BME280_humidity;BME280_pressure;Samples;Min_cycle;Max_cycle;Signal;HPM_P1;HPM_P2
2021/01/31 00:00:19;;;;;;;10.27;5.87;;;4.10;88.40;;;;;;4971161;28;20031;-82
2021/01/31 00:02:45;;;;;;;;;;;4.00;88.10;;;;;;4949059;28;20266;-85
2021/01/31 00:05:11;;;;;;;9.80;5.53;;;4.00;87.70;;;;;;4959306;28;20319;-85
2021/01/31 00:07:37;;;;;;;10.00;5.67;;;4.00;88.20;;;;;;4938792;29;20039;-78
2021/01/31 00:10:04;;;;;;;8.90;5.23;;;4.00;88.40;;;;;;4939228;29;20079;-78
2021/01/31 00:12:30;;;;;;;9.00;5.50;;;3.90;88.20;;;;;;4972525;28;20038;-79
2021/01/31 00:14:56;;;;;;;9.53;5.57;;;4.00;89.20;;;;;;4977371;28;20065;-78
2021/01/31 00:17:21;;;;;;;8.90;5.57;;;4.00;88.30;;;;;;4994658;28;20043;-79
2021/01/31 00:19:47;;;;;;;9.83;5.40;;;4.00;88.70;;;;;;4965463;28;20026;-79
2021/01/31 00:22:13;;;;;;;9.93;5.47;;;4.00;88.40;;;;;;4994927;28;20037;-80
2021/01/31 00:24:38;;;;;;;9.43;5.27;;;3.90;87.90;;;;;;4977385;28;20084;-80
2021/01/31 00:27:04;;;;;;;9.40;5.60;;;4.00;88.20;;;;;;4977025;28;20053;-77
2021/01/31 00:29:29;;;;;;;11.00;5.87;;;3.90;88.70;;;;;;4976837;28;20042;-79
2021/01/31 00:31:55;;;;;;;8.90;5.33;;;3.90;88.70;;;;;;4994356;28;20036;-78
2021/01/31 00:34:21;;;;;;;8.80;5.50;;;3.90;88.40;;;;;;4994103;28;20070;-79
2021/01/31 00:36:48;;;;;;;9.83;5.77;;;4.00;88.40;;;;;;4976932;28;20038;-78
2021/01/31 00:39:14;;;;;;;9.47;5.60;;;3.90;87.60;;;;;;4994604;28;20069;-80
2021/01/31 00:41:40;;;;;;;9.63;5.80;;;3.90;87.50;;;;;;4976609;28;20075;-81
2021/01/31 00:44:06;;;;;;;10.07;6.17;;;4.00;87.90;;;;;;4994684;28;20026;-81
2021/01/31 00:46:39;;;;;;;9.90;6.10;;;4.00;88.10;;;;;;4977025;28;20096;-78
2021/01/31 00:49:06;;;;;;;11.17;5.70;;;4.00;88.50;;;;;;4981355;28;20074;-80
2021/01/31 00:51:31;;;;;;;10.00;5.83;;;4.00;88.20;;;;;;4963064;28;20515;-79
2021/01/31 00:53:57;;;;;;;11.50;6.13;;;4.00;87.80;;;;;;4966476;28;20062;-78
2021/01/31 00:56:23;;;;;;;10.13;6.07;;;4.00;87.80;;;;;;4961316;28;20061;-77
2021/01/31 00:58:48;;;;;;;9.90;5.10;;;4.00;88.00;;;;;;4949790;28;20047;-78
2021/01/31 01:01:16;;;;;;;9.43;5.73;;;4.00;88.00;;;;;;4963829;28;20042;-79
2021/01/31 01:03:42;;;;;;;10.87;6.40;;;4.00;87.10;;;;;;4973391;28;20031;-79
2021/01/31 01:06:08;;;;;;;10.87;6.00;;;4.00;86.80;;;;;;4973964;28;20502;-79
2021/01/31 01:08:34;;;;;;;9.67;5.67;;;4.00;87.40;;;;;;4972615;28;20484;-80
2021/01/31 01:11:00;;;;;;;10.47;5.90;;;4.10;87.40;;;;;;4974208;28;20035;-78
2021/01/31 01:13:26;;;;;;;9.33;5.63;;;4.10;86.40;;;;;;4974389;28;20369;-78
2021/01/31 01:15:52;;;;;;;11.87;5.90;;;4.10;86.30;;;;;;4974217;28;20064;-78
2021/01/31 01:18:18;;;;;;;9.00;5.47;;;4.10;86.50;;;;;;4971426;28;20102;-79
2021/01/31 01:20:43;;;;;;;10.13;5.77;;;4.10;85.80;;;;;;4953820;28;20456;-77
2021/01/31 01:23:09;;;;;;;9.87;5.50;;;4.00;85.70;;;;;;4967134;28;20534;-77
2021/01/31 01:25:35;;;;;;;10.70;6.17;;;4.10;86.20;;;;;;4972343;28;20039;-78
2021/01/31 01:28:00;;;;;;;9.70;5.80;;;4.10;85.90;;;;;;4974307;28;20027;-79
2021/01/31 01:30:28;;;;;;;11.67;5.77;;;4.00;86.30;;;;;;4973027;28;20373;-78
2021/01/31 01:32:55;;;;;;;9.10;5.77;;;4.00;86.10;;;;;;4973517;28;20043;-79
2021/01/31 01:35:21;;;;;;;12.50;6.30;;;3.90;86.20;;;;;;4972256;28;20046;-78
2021/01/31 01:37:47;;;;;;;9.13;5.30;;;3.90;86.30;;;;;;4973210;28;20108;-78
2021/01/31 01:40:18;;;;;;;11.63;6.03;;;4.00;86.30;;;;;;4975229;28;20098;-78
2021/01/31 01:42:44;;;;;;;11.87;6.20;;;4.10;86.40;;;;;;4976725;28;20057;-79
2021/01/31 01:45:10;;;;;;;8.40;5.13;;;4.10;85.60;;;;;;4977782;28;20487;-78
2021/01/31 01:47:36;;;;;;;11.03;6.00;;;4.00;85.60;;;;;;4977420;28;20035;-77
2021/01/31 01:50:15;;;;;;;9.03;5.50;;;4.10;85.80;;;;;;4961921;28;20041;-79
2021/01/31 01:52:41;;;;;;;10.30;5.10;;;4.10;86.40;;;;;;4977428;28;20037;-77
2021/01/31 01:55:08;;;;;;;11.37;5.60;;;4.10;86.50;;;;;;4983309;28;20125;-77
2021/01/31 01:57:40;;;;;;;10.50;5.43;;;4.10;85.70;;;;;;4996896;28;20042;-78
2021/01/31 02:00:08;;;;;;;9.43;5.35;;;4.00;85.80;;;;;;4979310;28;20034;-79
2021/01/31 02:02:43;;;;;;;10.17;5.27;;;4.00;86.00;;;;;;4979511;28;20066;-79
2021/01/31 02:05:13;;;;;;;9.63;5.30;;;4.00;86.10;;;;;;4979208;28;20656;-78
2021/01/31 02:07:38;;;;;;;9.30;5.47;;;3.90;86.40;;;;;;4996349;28;20038;-78
2021/01/31 02:10:06;;;;;;;10.00;5.30;;;3.90;86.50;;;;;;4997049;28;20159;-78
2021/01/31 02:12:32;;;;;;;7.83;4.77;;;4.00;86.30;;;;;;4996223;28;20030;-78
2021/01/31 02:15:01;;;;;;;9.07;5.07;;;3.90;86.10;;;;;;4979218;28;20034;-78
2021/01/31 02:17:45;;;;;;;9.27;5.07;;;3.90;86.50;;;;;;4979631;28;20039;-77
2021/01/31 02:20:35;;;;;;;9.40;5.03;;;3.90;86.60;;;;;;4981673;28;20122;-79
2021/01/31 02:23:21;;;;;;;8.00;4.80;;;3.90;87.00;;;;;;4979995;28;20468;-78
2021/01/31 02:26:02;;;;;;;7.73;5.00;;;3.90;87.10;;;;;;4995946;28;20034;-78
2021/01/31 02:28:57;;;;;;;8.33;5.03;;;3.90;87.50;;;;;;4979682;28;20566;-77
2021/01/31 02:32:01;;;;;;;9.13;5.03;;;3.90;87.20;;;;;;4979448;28;20044;-77
2021/01/31 02:34:34;;;;;;;8.60;4.80;;;3.90;86.80;;;;;;4917678;28;20397;-78
2021/01/31 02:37:23;;;;;;;9.67;5.20;;;3.90;86.70;;;;;;4982698;28;20101;-78
2021/01/31 02:39:51;;;;;;;8.77;5.27;;;3.90;86.20;;;;;;4979794;28;20121;-78
2021/01/31 02:42:31;;;;;;;8.60;5.27;;;3.80;86.40;;;;;;4990404;28;20054;-79
2021/01/31 02:45:09;;;;;;;9.07;4.97;;;3.80;86.80;;;;;;4997088;28;20054;-78
2021/01/31 02:47:53;;;;;;;8.03;4.87;;;3.80;86.90;;;;;;4978589;28;20487;-78
2021/01/31 02:50:23;;;;;;;10.13;5.13;;;3.80;86.30;;;;;;4951405;28;20072;-79
2021/01/31 02:53:04;;;;;;;8.43;5.00;;;3.80;86.30;;;;;;4978951;28;20097;-78
2021/01/31 02:55:39;;;;;;;9.55;4.90;;;3.80;86.70;;;;;;4996427;28;20108;-78
2021/01/31 02:58:13;;;;;;;8.20;5.20;;;3.80;86.80;;;;;;4979092;28;20097;-78
2021/01/31 03:00:46;;;;;;;8.33;4.77;;;3.80;86.30;;;;;;4996135;28;20038;-79
2021/01/31 03:03:19;;;;;;;7.47;5.07;;;3.80;86.50;;;;;;4979508;28;20034;-77
2021/01/31 03:05:52;;;;;;;9.27;4.97;;;3.90;85.90;;;;;;4995883;28;20093;-77
2021/01/31 03:08:33;;;;;;;8.97;4.90;;;3.80;85.70;;;;;;4978866;28;20041;-78
2021/01/31 03:11:20;;;;;;;8.93;5.17;;;3.80;85.40;;;;;;4997061;28;20039;-78
2021/01/31 03:13:56;;;;;;;6.90;4.93;;;3.90;86.20;;;;;;4995062;28;20062;-77
2021/01/31 03:16:33;;;;;;;10.03;5.13;;;3.90;85.20;;;;;;4996019;28;20042;-77
2021/01/31 03:19:25;;;;;;;7.87;5.00;;;3.90;84.90;;;;;;4987655;28;20030;-76
2021/01/31 03:21:57;;;;;;;9.40;5.23;;;3.90;84.80;;;;;;4978163;28;20092;-77
2021/01/31 03:24:28;;;;;;;8.40;4.68;;;3.80;84.30;;;;;;4995277;28;20399;-76
2021/01/31 03:27:24;;;;;;;7.38;4.60;;;3.80;84.00;;;;;;4994579;28;20257;-77
2021/01/31 03:29:50;;;;;;;9.30;5.07;;;3.70;84.70;;;;;;4991617;28;20041;-77
2021/01/31 03:32:39;;;;;;;9.17;4.50;;;3.80;85.00;;;;;;4977690;28;20034;-77
2021/01/31 03:35:10;;;;;;;7.93;5.10;;;3.80;84.90;;;;;;4978177;28;20495;-76
2021/01/31 03:37:45;;;;;;;8.68;5.18;;;3.80;85.20;;;;;;4977515;28;20483;-77
2021/01/31 03:40:13;;;;;;;7.83;4.60;;;3.80;85.70;;;;;;4995294;28;20035;-76
2021/01/31 03:42:42;;;;;;;9.27;5.47;;;3.80;84.30;;;;;;4995025;28;20027;-77
2021/01/31 03:45:08;;;;;;;11.70;5.70;;;3.80;84.50;;;;;;4977761;28;20034;-76
2021/01/31 03:47:56;;;;;;;10.17;5.57;;;3.70;84.30;;;;;;4977421;28;20053;-76
2021/01/31 03:50:21;;;;;;;12.40;5.50;;;3.70;84.70;;;;;;4983178;28;20038;-76
2021/01/31 03:52:47;;;;;;;10.23;6.10;;;3.70;85.00;;;;;;4995137;28;20093;-77
2021/01/31 03:55:13;;;;;;;8.57;5.50;;;3.80;84.90;;;;;;4994843;28;20064;-76
2021/01/31 03:57:49;;;;;;;10.10;5.30;;;3.70;84.70;;;;;;4976900;28;20507;-77
2021/01/31 04:00:25;;;;;;;8.13;5.10;;;3.70;84.10;;;;;;4977488;28;20050;-76
2021/01/31 04:03:01;;;;;;;8.67;5.07;;;3.70;84.70;;;;;;4976279;28;20089;-76
2021/01/31 04:05:30;;;;;;;9.03;5.37;;;3.70;83.90;;;;;;4977155;28;20088;-76
2021/01/31 04:08:01;;;;;;;10.87;5.50;;;3.70;84.50;;;;;;4978117;28;20038;-76
2021/01/31 04:10:27;;;;;;;8.23;5.20;;;3.70;84.30;;;;;;4976191;28;20039;-76
2021/01/31 04:12:56;;;;;;;8.83;5.00;;;3.70;83.70;;;;;;4968415;28;20580;-76
2021/01/31 04:15:25;;;;;;;9.30;5.97;;;3.80;83.80;;;;;;4994227;28;20038;-76
2021/01/31 04:17:50;;;;;;;9.27;5.50;;;3.80;83.80;;;;;;4976777;28;20542;-76
2021/01/31 04:20:16;;;;;;;9.23;5.47;;;3.80;84.20;;;;;;4964680;28;20034;-78
2021/01/31 04:22:42;;;;;;;9.00;5.37;;;3.80;84.20;;;;;;4976175;28;20041;-76
2021/01/31 04:25:09;;;;;;;9.73;5.40;;;3.70;83.80;;;;;;4994154;28;20089;-76
2021/01/31 04:27:35;;;;;;;10.87;5.90;;;3.70;84.10;;;;;;4977426;28;20041;-81
2021/01/31 04:30:01;;;;;;;10.53;5.60;;;3.80;84.10;;;;;;4993855;28;20034;-78
2021/01/31 04:32:26;;;;;;;10.20;5.50;;;3.70;83.10;;;;;;4977320;28;20034;-78
2021/01/31 04:34:52;;;;;;;8.67;5.53;;;3.70;83.10;;;;;;4993417;28;20097;-78
2021/01/31 04:37:20;;;;;;;11.30;5.80;;;3.70;83.20;;;;;;4993544;28;20068;-78
2021/01/31 04:39:49;;;;;;;9.37;5.70;;;3.60;83.60;;;;;;4994184;28;20129;-77
2021/01/31 04:42:18;;;;;;;10.17;5.40;;;3.70;84.10;;;;;;4977031;28;20117;-77
2021/01/31 04:44:44;;;;;;;10.27;5.60;;;3.70;84.10;;;;;;4993561;28;20034;-77
2021/01/31 04:47:30;;;;;;;9.40;5.40;;;3.60;84.30;;;;;;4993918;28;20089;-77
2021/01/31 04:50:07;;;;;;;7.83;4.80;;;3.60;84.50;;;;;;4978000;28;20038;-78
2021/01/31 04:53:02;;;;;;;8.63;4.93;;;3.70;84.40;;;;;;4977432;28;20037;-77
2021/01/31 04:55:31;;;;;;;8.87;5.57;;;3.70;84.30;;;;;;4993803;28;20054;-77
2021/01/31 04:58:11;;;;;;;10.33;5.53;;;3.70;83.80;;;;;;4976497;28;20034;-77
2021/01/31 05:00:51;;;;;;;10.70;5.40;;;3.70;83.70;;;;;;4976453;28;20038;-77
2021/01/31 05:03:18;;;;;;;8.43;5.67;;;3.70;84.00;;;;;;4977183;28;20487;-77
2021/01/31 05:05:55;;;;;;;11.07;5.67;;;3.70;84.00;;;;;;4993975;28;20034;-77
2021/01/31 05:08:24;;;;;;;11.27;6.30;;;3.70;83.80;;;;;;4993475;28;20038;-76
2021/01/31 05:10:52;;;;;;;9.43;5.83;;;3.70;84.00;;;;;;4976461;28;20045;-77
2021/01/31 05:13:42;;;;;;;9.87;5.63;;;3.70;83.80;;;;;;4994155;28;20034;-77
2021/01/31 05:16:14;;;;;;;8.80;5.70;;;3.70;84.10;;;;;;4965900;28;20041;-77
2021/01/31 05:18:48;;;;;;;10.32;5.70;;;3.70;83.60;;;;;;4987196;28;20046;-77
2021/01/31 05:21:18;;;;;;;8.60;5.47;;;3.70;83.40;;;;;;4971335;28;20037;-77
2021/01/31 05:24:00;;;;;;;10.37;6.13;;;3.70;83.20;;;;;;4993274;28;20035;-77
2021/01/31 05:26:28;;;;;;;8.40;5.63;;;3.70;82.90;;;;;;4992783;28;20042;-77
2021/01/31 05:29:01;;;;;;;10.67;6.23;;;3.60;82.60;;;;;;4993299;28;20057;-77
2021/01/31 05:31:32;;;;;;;9.00;5.90;;;3.60;83.00;;;;;;4976506;28;20381;-77
2021/01/31 05:33:59;;;;;;;10.13;5.87;;;3.60;82.50;;;;;;4960458;28;20042;-78
2021/01/31 05:36:28;;;;;;;9.50;5.83;;;3.60;83.40;;;;;;4976741;28;20121;-78
2021/01/31 05:38:55;;;;;;;9.63;5.53;;;3.60;83.00;;;;;;4993651;28;20114;-77
2021/01/31 05:41:38;;;;;;;10.80;5.87;;;3.60;83.50;;;;;;4993108;28;20031;-77
2021/01/31 05:44:21;;;;;;;8.30;4.80;;;3.60;82.50;;;;;;4954481;29;20043;-77
2021/01/31 05:46:48;;;;;;;12.10;6.40;;;3.60;82.30;;;;;;4958171;28;20458;-77
2021/01/31 05:49:34;;;;;;;9.87;5.70;;;3.60;83.30;;;;;;4983285;28;20035;-78
2021/01/31 05:52:02;;;;;;;9.17;5.63;;;3.60;83.20;;;;;;4946672;28;20065;-78
2021/01/31 05:54:39;;;;;;;10.80;6.00;;;3.60;82.60;;;;;;4976354;28;20092;-78
2021/01/31 05:57:21;;;;;;;8.60;5.30;;;3.60;82.30;;;;;;4954712;29;20043;-77
2021/01/31 05:59:48;;;;;;;12.73;5.60;;;3.50;82.60;;;;;;4953184;29;20035;-76
2021/01/31 06:02:30;;;;;;;9.73;5.77;;;3.50;83.00;;;;;;4955475;29;20098;-77
2021/01/31 06:05:08;;;;;;;9.87;6.10;;;3.60;82.70;;;;;;4952967;29;20042;-77
2021/01/31 06:07:34;;;;;;;10.90;5.97;;;3.60;82.70;;;;;;4953685;28;20078;-77
2021/01/31 06:10:16;;;;;;;10.07;5.43;;;3.60;82.60;;;;;;4952894;29;20059;-76
2021/01/31 06:12:43;;;;;;;9.75;6.40;;;3.50;82.90;;;;;;4952542;29;20042;-78
2021/01/31 06:15:21;;;;;;;9.80;5.53;;;3.50;83.10;;;;;;4952521;29;20039;-77
2021/01/31 06:18:12;;;;;;;9.43;5.80;;;3.50;83.10;;;;;;4952426;29;20083;-77
2021/01/31 06:20:41;;;;;;;9.63;5.73;;;3.50;82.80;;;;;;4934097;29;20107;-78
2021/01/31 06:23:37;;;;;;;11.03;5.93;;;3.50;82.60;;;;;;4953694;28;20028;-77
2021/01/31 06:26:04;;;;;;;8.87;5.50;;;3.50;83.00;;;;;;4918705;29;20125;-77
2021/01/31 06:28:43;;;;;;;10.23;5.70;;;3.60;83.20;;;;;;4957268;28;20043;-77
2021/01/31 06:31:24;;;;;;;10.13;5.47;;;3.50;83.00;;;;;;4957442;29;20031;-76
2021/01/31 06:33:50;;;;;;;12.13;6.57;;;3.60;83.20;;;;;;4957348;29;20031;-78
2021/01/31 06:36:38;;;;;;;12.03;6.07;;;3.50;82.20;;;;;;4956227;29;20036;-78
2021/01/31 06:39:30;;;;;;;10.10;6.20;;;3.50;82.90;;;;;;4956080;29;20043;-78
2021/01/31 06:42:18;;;;;;;9.97;5.97;;;3.50;83.20;;;;;;4932348;29;20082;-78
2021/01/31 06:44:55;;;;;;;10.93;6.13;;;3.60;83.40;;;;;;4957236;29;20035;-78
2021/01/31 06:47:36;;;;;;;12.33;6.60;;;3.60;83.00;;;;;;4956020;28;20201;-78
2021/01/31 06:50:08;;;;;;;10.17;5.83;;;3.50;82.50;;;;;;4938404;29;20035;-77
2021/01/31 06:52:43;;;;;;;10.03;6.10;;;3.50;83.10;;;;;;4957270;29;20039;-77
2021/01/31 06:55:40;;;;;;;11.07;6.17;;;3.50;82.00;;;;;;4959644;28;20050;-79
2021/01/31 06:58:21;;;;;;;9.47;5.53;;;3.50;82.20;;;;;;4947853;28;20037;-77
2021/01/31 07:01:02;;;;;;;12.10;5.90;;;3.50;81.90;;;;;;4975162;28;20038;-77
2021/01/31 07:03:52;;;;;;;12.03;6.20;;;3.50;82.60;;;;;;4976459;28;20042;-77
2021/01/31 07:06:55;;;;;;;10.27;5.90;;;3.50;83.00;;;;;;4951060;28;20109;-77
2021/01/31 07:09:45;;;;;;;9.50;5.63;;;3.50;82.60;;;;;;4974974;28;20066;-77
2021/01/31 07:12:21;;;;;;;9.20;5.60;;;3.50;82.80;;;;;;4947787;28;20046;-79
2021/01/31 07:15:03;;;;;;;12.00;6.37;;;3.50;82.50;;;;;;4974615;28;20057;-77
2021/01/31 07:17:35;;;;;;;10.33;5.60;;;3.50;82.60;;;;;;4974941;28;20062;-78
2021/01/31 07:20:24;;;;;;;10.93;6.05;;;3.50;82.90;;;;;;4975553;28;20023;-79
2021/01/31 07:23:12;;;;;;;26.40;12.60;;;3.50;83.10;;;;;;4975856;28;20035;-79
2021/01/31 07:25:46;;;;;;;16.47;8.13;;;3.60;82.30;;;;;;4975809;28;20111;-79
2021/01/31 07:28:25;;;;;;;11.27;6.43;;;3.50;82.50;;;;;;4975260;28;20066;-78
2021/01/31 07:31:14;;;;;;;13.23;6.47;;;3.50;82.90;;;;;;4975654;28;20030;-79
2021/01/31 07:33:49;;;;;;;12.03;6.40;;;3.50;82.90;;;;;;4973924;28;20074;-79
2021/01/31 07:36:25;;;;;;;12.80;7.13;;;3.50;82.10;;;;;;4975012;28;20102;-80
2021/01/31 07:39:11;;;;;;;12.87;6.53;;;3.60;82.40;;;;;;4973959;28;20046;-79
2021/01/31 07:41:44;;;;;;;9.63;5.97;;;3.60;82.60;;;;;;4974530;28;20035;-79
2021/01/31 07:44:13;;;;;;;12.77;6.77;;;3.60;82.60;;;;;;4975839;28;20476;-77
2021/01/31 07:46:39;;;;;;;14.83;7.50;;;3.60;82.40;;;;;;4973809;28;20043;-78
2021/01/31 07:49:06;;;;;;;43.27;17.77;;;3.70;82.50;;;;;;4966116;28;20054;-77
2021/01/31 07:51:37;;;;;;;14.13;8.13;;;3.70;82.10;;;;;;4971668;28;20038;-78
2021/01/31 07:54:17;;;;;;;9.37;5.53;;;3.80;81.80;;;;;;4974138;28;20145;-78
2021/01/31 07:56:43;;;;;;;12.20;6.43;;;3.70;81.50;;;;;;4973363;28;20073;-78
2021/01/31 07:59:08;;;;;;;12.27;6.93;;;3.70;82.00;;;;;;4975249;28;20468;-78
2021/01/31 08:01:40;;;;;;;10.77;6.30;;;3.80;82.30;;;;;;4973869;28;20089;-78
2021/01/31 08:04:15;;;;;;;14.32;7.38;;;3.80;81.70;;;;;;4974987;28;20035;-77
2021/01/31 08:06:41;;;;;;;11.27;6.07;;;3.80;81.30;;;;;;4973840;28;20043;-77
2021/01/31 08:09:07;;;;;;;10.37;5.90;;;3.80;81.90;;;;;;4973453;28;20038;-76
2021/01/31 08:11:38;;;;;;;10.53;6.20;;;3.80;82.00;;;;;;4973835;28;20391;-77
2021/01/31 08:14:08;;;;;;;10.00;6.03;;;3.90;82.00;;;;;;4973767;28;20031;-76
2021/01/31 08:16:48;;;;;;;9.40;5.97;;;3.80;81.30;;;;;;4974537;28;20038;-77
2021/01/31 08:19:16;;;;;;;11.47;6.20;;;3.80;80.80;;;;;;4963377;28;20039;-78
2021/01/31 08:22:04;;;;;;;11.10;6.53;;;3.90;81.80;;;;;;4972593;28;20039;-77
2021/01/31 08:25:07;;;;;;;10.03;6.43;;;3.90;81.80;;;;;;4973533;28;20035;-78
2021/01/31 08:28:02;;;;;;;11.33;6.03;;;3.90;80.40;;;;;;4974798;28;20093;-78
2021/01/31 08:30:39;;;;;;;11.40;6.43;;;3.90;81.20;;;;;;4975018;28;20070;-78
2021/01/31 08:33:27;;;;;;;10.27;6.20;;;3.90;81.40;;;;;;4973749;28;20472;-78
2021/01/31 08:35:52;;;;;;;9.30;5.60;;;4.00;81.00;;;;;;4973203;28;20050;-78
2021/01/31 08:38:32;;;;;;;10.87;5.97;;;4.00;81.00;;;;;;4974921;28;20043;-77
2021/01/31 08:43:32;;;;;;;9.30;5.90;;;4.10;80.50;;;;;;4974656;28;20459;-78
2021/01/31 08:46:15;;;;;;;11.55;6.13;;;4.00;79.90;;;;;;4943587;28;20093;-78
2021/01/31 08:48:41;;;;;;;9.40;6.13;;;4.00;79.60;;;;;;4966611;28;20086;-77
2021/01/31 08:51:15;;;;;;;12.80;6.73;;;4.10;80.10;;;;;;4967131;28;20035;-78
2021/01/31 08:53:41;;;;;;;12.67;6.77;;;4.10;80.60;;;;;;4973373;28;20468;-79
2021/01/31 08:56:14;;;;;;;12.17;6.70;;;4.10;80.30;;;;;;4972990;28;20047;-79
2021/01/31 08:58:40;;;;;;;10.47;6.10;;;4.10;80.10;;;;;;4973659;28;20152;-77
2021/01/31 09:01:06;;;;;;;13.17;6.73;;;4.10;79.60;;;;;;4973081;28;20453;-77
2021/01/31 09:03:33;;;;;;;12.60;6.57;;;4.20;80.50;;;;;;4974570;28;20057;-78
2021/01/31 09:06:00;;;;;;;11.03;5.90;;;4.20;79.80;;;;;;4972332;28;20034;-78
2021/01/31 09:08:27;;;;;;;11.87;6.70;;;4.20;80.30;;;;;;4973505;28;20113;-77
2021/01/31 09:10:53;;;;;;;10.33;6.10;;;4.20;80.80;;;;;;4973515;28;20040;-78
2021/01/31 09:13:28;;;;;;;11.50;6.33;;;4.30;80.80;;;;;;4974854;28;20035;-79
2021/01/31 09:16:08;;;;;;;11.40;6.60;;;4.30;80.30;;;;;;4941504;28;20468;-80
2021/01/31 09:18:34;;;;;;;12.87;6.37;;;4.30;80.00;;;;;;4969585;28;20035;-79
2021/01/31 09:21:18;;;;;;;12.10;6.13;;;4.30;80.10;;;;;;4965572;28;20035;-79
2021/01/31 09:23:44;;;;;;;10.00;5.70;;;4.40;79.60;;;;;;4973679;28;20035;-78
2021/01/31 09:26:10;;;;;;;11.57;6.50;;;4.40;80.00;;;;;;4973396;28;20046;-78
2021/01/31 09:28:40;;;;;;;11.50;6.20;;;4.40;80.00;;;;;;4972420;28;20540;-82
2021/01/31 09:31:07;;;;;;;9.53;5.70;;;4.50;79.40;;;;;;4958725;28;20036;-81
2021/01/31 09:33:40;;;;;;;11.03;6.40;;;4.60;78.90;;;;;;4968825;28;20499;-79
2021/01/31 09:36:16;;;;;;;11.70;6.50;;;4.60;79.80;;;;;;4969054;28;20051;-79
2021/01/31 09:38:42;;;;;;;12.97;5.80;;;4.50;79.10;;;;;;4963946;28;20043;-78
2021/01/31 09:41:09;;;;;;;10.70;6.33;;;4.60;79.80;;;;;;4973727;28;20451;-77
2021/01/31 09:43:35;;;;;;;10.43;6.13;;;4.60;79.60;;;;;;4972831;28;20039;-77
2021/01/31 09:46:07;;;;;;;10.93;6.13;;;4.60;78.90;;;;;;4972352;28;20501;-77
2021/01/31 09:48:34;;;;;;;12.23;6.70;;;4.70;79.30;;;;;;4968863;28;20031;-78
2021/01/31 09:51:03;;;;;;;11.17;6.50;;;4.80;79.00;;;;;;4964691;28;20043;-78
2021/01/31 09:53:41;;;;;;;13.93;6.90;;;4.90;79.00;;;;;;4972976;28;20472;-77
2021/01/31 09:56:09;;;;;;;10.50;5.97;;;4.80;79.20;;;;;;4985359;28;20548;-77
2021/01/31 09:58:44;;;;;;;11.47;6.97;;;4.90;79.10;;;;;;4975572;28;20058;-79
2021/01/31 10:01:23;;;;;;;18.97;10.47;;;4.90;78.90;;;;;;4995474;28;20038;-78
2021/01/31 10:04:04;;;;;;;31.50;13.00;;;5.00;78.70;;;;;;4979114;28;20499;-80
2021/01/31 10:06:44;;;;;;;13.30;7.23;;;5.00;77.70;;;;;;4978552;28;20026;-77
2021/01/31 10:09:10;;;;;;;11.50;6.50;;;5.10;78.00;;;;;;4979177;28;20133;-77
2021/01/31 10:11:41;;;;;;;11.37;6.90;;;5.10;77.40;;;;;;4978608;28;20045;-83
2021/01/31 10:14:12;;;;;;;11.77;6.63;;;5.10;77.70;;;;;;4979252;28;20487;-77
2021/01/31 10:16:41;;;;;;;11.30;6.43;;;5.20;77.90;;;;;;4978769;28;20088;-78
2021/01/31 10:19:22;;;;;;;12.10;6.17;;;5.20;78.30;;;;;;4986856;28;20034;-77
2021/01/31 10:21:56;;;;;;;9.60;6.20;;;5.30;78.50;;;;;;4977837;28;20039;-77
2021/01/31 10:24:34;;;;;;;11.40;6.40;;;5.30;78.20;;;;;;4996371;28;20105;-77
2021/01/31 10:27:19;;;;;;;10.77;5.50;;;5.40;78.00;;;;;;4978733;28;20034;-78
2021/01/31 10:29:45;;;;;;;11.17;6.50;;;5.30;77.50;;;;;;4978042;28;20543;-79
2021/01/31 10:32:41;;;;;;;11.63;6.50;;;5.30;77.40;;;;;;4996646;28;20114;-79
2021/01/31 10:35:25;;;;;;;12.43;6.37;;;5.30;77.80;;;;;;4995275;28;20035;-78
2021/01/31 10:37:50;;;;;;;12.73;6.30;;;5.40;78.40;;;;;;4978282;28;20058;-79
2021/01/31 10:40:17;;;;;;;10.30;6.17;;;5.50;78.30;;;;;;4978981;28;20066;-77
2021/01/31 10:42:42;;;;;;;10.63;6.13;;;5.60;78.40;;;;;;4978835;28;20034;-80
2021/01/31 10:45:12;;;;;;;10.00;5.83;;;5.70;77.00;;;;;;4979295;28;20048;-78
2021/01/31 10:47:38;;;;;;;11.73;6.93;;;5.70;77.40;;;;;;4996414;28;20126;-84
2021/01/31 10:50:05;;;;;;;11.17;5.93;;;5.70;77.70;;;;;;4978047;28;20133;-78
2021/01/31 10:52:33;;;;;;;12.13;6.57;;;5.70;78.10;;;;;;4979397;28;20037;-78
2021/01/31 10:54:59;;;;;;;10.97;6.13;;;5.70;78.00;;;;;;4995702;28;20082;-76
2021/01/31 10:57:24;;;;;;;12.60;6.70;;;5.70;77.00;;;;;;4979078;28;20097;-76
2021/01/31 10:59:51;;;;;;;11.17;6.20;;;5.70;77.60;;;;;;4978146;28;20026;-76
2021/01/31 11:02:17;;;;;;;11.90;6.30;;;5.70;77.90;;;;;;4995808;28;20045;-77
2021/01/31 11:04:43;;;;;;;9.50;5.87;;;5.70;78.10;;;;;;4995541;28;20070;-78
2021/01/31 11:07:08;;;;;;;15.10;6.83;;;5.70;77.70;;;;;;4978729;28;20471;-78
2021/01/31 11:09:35;;;;;;;10.77;6.23;;;5.70;77.20;;;;;;4960442;28;20094;-79
2021/01/31 11:12:01;;;;;;;10.60;6.30;;;5.60;77.50;;;;;;4994790;28;20097;-80
2021/01/31 11:14:26;;;;;;;13.03;6.63;;;5.60;76.90;;;;;;4978395;28;20042;-77
2021/01/31 11:16:52;;;;;;;17.23;7.17;;;5.50;76.80;;;;;;4971921;28;20077;-79
2021/01/31 11:19:18;;;;;;;13.20;6.83;;;5.50;77.30;;;;;;4985301;28;20031;-78
2021/01/31 11:21:43;;;;;;;12.93;6.73;;;5.50;78.20;;;;;;4977426;28;20045;-79
2021/01/31 11:24:09;;;;;;;11.57;6.30;;;5.40;77.80;;;;;;4995653;28;20018;-79
2021/01/31 11:26:34;;;;;;;9.97;5.90;;;5.40;77.30;;;;;;4995631;28;20353;-78
2021/01/31 11:29:00;;;;;;;9.87;6.00;;;5.40;77.90;;;;;;4977855;28;20189;-78
2021/01/31 11:31:26;;;;;;;11.90;6.67;;;5.50;77.70;;;;;;4979454;28;20360;-79
2021/01/31 11:33:54;;;;;;;10.77;6.13;;;5.40;78.10;;;;;;4982438;28;20045;-80
2021/01/31 11:36:21;;;;;;;12.60;6.63;;;5.40;79.10;;;;;;4980953;28;20506;-80
2021/01/31 11:38:47;;;;;;;14.57;6.90;;;5.40;78.40;;;;;;4980998;28;20034;-79
2021/01/31 11:41:13;;;;;;;11.90;6.80;;;5.50;78.60;;;;;;4981202;28;20092;-80
2021/01/31 11:43:39;;;;;;;14.37;6.97;;;5.50;79.30;;;;;;4981951;28;20047;-82
2021/01/31 11:46:05;;;;;;;11.17;6.57;;;5.50;78.50;;;;;;4984445;28;20039;-80
2021/01/31 11:48:30;;;;;;;10.50;6.13;;;5.50;79.10;;;;;;4976466;28;20034;-78
2021/01/31 11:50:56;;;;;;;11.97;6.70;;;5.50;79.60;;;;;;4960357;28;20034;-79
2021/01/31 11:53:22;;;;;;;13.30;6.87;;;5.60;79.40;;;;;;4977074;28;20034;-78
2021/01/31 11:55:47;;;;;;;11.53;7.20;;;5.60;80.10;;;;;;4979455;28;20403;-79
2021/01/31 11:58:14;;;;;;;10.60;6.10;;;5.50;80.60;;;;;;4996938;28;20121;-78
2021/01/31 12:00:40;;;;;;;12.90;6.73;;;5.60;80.30;;;;;;4995935;28;20077;-79
2021/01/31 12:03:06;;;;;;;14.30;7.37;;;5.60;81.10;;;;;;4978014;28;20492;-78
2021/01/31 12:05:32;;;;;;;12.80;7.27;;;5.70;81.20;;;;;;4995362;28;20040;-79
2021/01/31 12:07:58;;;;;;;12.73;7.13;;;5.70;81.60;;;;;;4994172;28;20088;-79
2021/01/31 12:10:25;;;;;;;12.23;6.80;;;5.70;80.80;;;;;;4965680;28;20054;-78
2021/01/31 12:12:52;;;;;;;12.50;7.13;;;5.70;80.40;;;;;;4977347;28;20038;-79
2021/01/31 12:15:18;;;;;;;12.73;7.37;;;5.70;80.80;;;;;;4995391;28;20041;-80
2021/01/31 12:17:44;;;;;;;12.53;7.00;;;5.60;80.30;;;;;;4995080;28;20039;-78
2021/01/31 12:20:12;;;;;;;14.47;7.30;;;5.60;80.60;;;;;;4982272;28;20118;-77
2021/01/31 12:22:38;;;;;;;11.33;7.23;;;5.60;80.50;;;;;;4972658;28;20038;-79
2021/01/31 12:25:05;;;;;;;12.70;6.93;;;5.60;80.70;;;;;;4974951;28;20047;-77
2021/01/31 12:27:31;;;;;;;11.70;6.93;;;5.50;79.90;;;;;;4946750;28;20054;-78
2021/01/31 12:29:57;;;;;;;13.70;7.17;;;5.40;80.60;;;;;;4977197;28;20038;-78
2021/01/31 12:32:23;;;;;;;12.30;6.60;;;5.40;81.00;;;;;;4977135;28;20471;-77
2021/01/31 12:34:49;;;;;;;15.33;7.43;;;5.40;81.00;;;;;;4977386;28;20039;-79
2021/01/31 12:37:16;;;;;;;11.30;6.63;;;5.40;81.40;;;;;;4984509;28;20035;-79
2021/01/31 12:39:42;;;;;;;12.07;6.53;;;5.40;80.90;;;;;;4977236;28;20487;-78
2021/01/31 12:42:07;;;;;;;13.87;7.53;;;5.50;80.80;;;;;;4994125;28;20022;-78
2021/01/31 12:44:33;;;;;;;12.83;6.37;;;5.40;80.70;;;;;;4974397;28;20443;-78
2021/01/31 12:46:59;;;;;;;12.53;6.57;;;5.40;80.70;;;;;;4986464;28;20108;-77
2021/01/31 12:49:25;;;;;;;10.60;6.37;;;5.40;81.50;;;;;;4982544;28;20448;-78
2021/01/31 12:51:50;;;;;;;14.53;7.10;;;5.40;81.20;;;;;;4974226;28;20395;-77
2021/01/31 12:54:16;;;;;;;14.47;7.07;;;5.40;81.00;;;;;;4979670;28;20427;-77
2021/01/31 12:56:42;;;;;;;13.27;7.20;;;5.40;81.60;;;;;;4956476;28;20052;-81
2021/01/31 12:59:07;;;;;;;11.50;6.80;;;5.40;81.50;;;;;;4949770;28;20035;-79
2021/01/31 13:01:33;;;;;;;12.63;6.57;;;5.40;82.00;;;;;;4959579;28;20032;-78
2021/01/31 13:03:59;;;;;;;11.97;6.63;;;5.40;81.60;;;;;;4973326;28;20130;-81
2021/01/31 13:06:24;;;;;;;15.93;7.00;;;5.40;81.90;;;;;;4974779;28;20451;-81
2021/01/31 13:08:50;;;;;;;12.77;6.60;;;5.40;82.60;;;;;;4972080;28;20035;-81
2021/01/31 13:11:16;;;;;;;11.47;6.70;;;5.50;82.40;;;;;;4969070;28;20085;-82
2021/01/31 13:13:42;;;;;;;12.80;7.70;;;5.50;82.70;;;;;;4975020;28;20035;-82
2021/01/31 13:16:07;;;;;;;12.00;7.03;;;5.50;83.10;;;;;;4975793;28;20046;-80